Time;durP1;ratioP1;P1;durP2;ratioP2;P2;SDS_P1;SDS_P2;PMS_P1;PMS_P2;Temp;Humidity;BMP_temperature;BMP_pressure;BME280_temperature;BME280_humidity;BME280_pressure;Samples;Min_cycle;Max_cycle;Signal;HPM_P1;HPM_P2
2022/10/17 00:01:33;;;;;;;1.63;1.20;;;16.70;66.70;;;;;;5092089;28;20139;-77
2022/10/17 00:04:00;;;;;;;2.30;1.30;;;16.70;66.70;;;;;;5092412;28;20056;-77
2022/10/17 00:06:27;;;;;;;2.30;1.20;;;16.60;66.60;;;;;;5092109;28;20130;-77
2022/10/17 00:08:53;;;;;;;2.67;1.30;;;16.70;66.70;;;;;;5092921;28;20578;-77
2022/10/17 00:11:22;;;;;;;2.65;1.35;;;16.70;66.70;;;;;;5091676;28;20135;-77
2022/10/17 00:13:50;;;;;;;1.65;1.10;;;16.70;66.70;;;;;;5091692;28;20135;-77
2022/10/17 00:16:23;;;;;;;2.10;1.33;;;16.60;66.70;;;;;;5092139;28;20084;-75
2022/10/17 00:18:50;;;;;;;2.35;1.40;;;16.70;66.70;;;;;;5093550;28;20544;-75
2022/10/17 00:21:17;;;;;;;1.95;1.30;;;16.70;66.70;;;;;;5092984;28;20119;-77
2022/10/17 00:23:44;;;;;;;2.28;1.33;;;16.70;66.70;;;;;;5092035;28;20058;-77
2022/10/17 00:26:10;;;;;;;2.78;1.20;;;16.70;66.70;;;;;;5093067;28;20091;-77
2022/10/17 00:28:38;;;;;;;1.98;1.20;;;16.60;66.70;;;;;;5092943;28;20078;-77
2022/10/17 00:31:06;;;;;;;2.22;1.20;;;16.70;66.70;;;;;;5092152;28;20131;-77
2022/10/17 00:33:33;;;;;;;2.67;1.40;;;16.70;66.70;;;;;;5093443;28;20055;-77
2022/10/17 00:36:04;;;;;;;2.42;1.23;;;16.60;66.70;;;;;;5091965;28;20135;-77
2022/10/17 00:38:31;;;;;;;1.83;1.30;;;16.60;66.70;;;;;;5091560;28;20062;-77
2022/10/17 00:40:58;;;;;;;1.90;1.20;;;16.60;66.70;;;;;;5091387;28;20131;-77
2022/10/17 00:43:25;;;;;;;1.95;1.17;;;16.60;66.70;;;;;;5082154;28;20053;-77
2022/10/17 00:45:53;;;;;;;1.95;1.13;;;16.60;66.70;;;;;;5072175;28;20063;-77
2022/10/17 00:48:20;;;;;;;2.20;1.50;;;16.60;66.70;;;;;;5071587;28;20139;-77
2022/10/17 00:50:47;;;;;;;2.10;1.30;;;16.60;66.70;;;;;;5088472;28;20508;-77
2022/10/17 00:53:14;;;;;;;2.10;1.15;;;16.60;66.70;;;;;;5092490;28;20131;-76
2022/10/17 00:55:44;;;;;;;1.30;1.20;;;16.60;66.70;;;;;;5090461;28;20052;-76
2022/10/17 00:58:11;;;;;;;2.00;1.30;;;16.60;66.70;;;;;;5090428;28;20139;-76
2022/10/17 01:00:38;;;;;;;2.53;1.30;;;16.60;66.70;;;;;;5089939;28;20051;-76
2022/10/17 01:03:06;;;;;;;1.98;1.60;;;16.60;66.70;;;;;;5090374;28;20078;-76
2022/10/17 01:05:32;;;;;;;2.38;1.30;;;16.60;66.70;;;;;;5090070;28;20058;-77
2022/10/17 01:07:59;;;;;;;3.42;1.30;;;16.60;67.30;;;;;;5090184;28;20137;-76
2022/10/17 01:10:30;;;;;;;1.70;1.35;;;16.60;66.80;;;;;;5090033;28;20062;-76
2022/10/17 01:13:02;;;;;;;1.67;1.25;;;16.60;66.80;;;;;;5090326;28;20474;-76
2022/10/17 01:15:36;;;;;;;3.22;1.50;;;16.60;66.80;;;;;;5090482;28;20451;-76
2022/10/17 01:18:13;;;;;;;1.70;1.30;;;16.60;66.80;;;;;;5089980;28;20062;-76
2022/10/17 01:21:08;;;;;;;2.45;1.40;;;16.60;66.80;;;;;;5089296;28;20432;-76
2022/10/17 01:24:10;;;;;;;1.77;1.30;;;16.60;66.70;;;;;;5090334;28;20059;-76
2022/10/17 01:26:44;;;;;;;2.55;1.40;;;16.60;66.80;;;;;;5068484;28;20056;-77
2022/10/17 01:29:22;;;;;;;1.95;1.30;;;16.50;66.80;;;;;;5095290;28;20497;-77
2022/10/17 01:31:52;;;;;;;2.17;1.35;;;16.50;66.80;;;;;;5094769;28;20055;-77
2022/10/17 01:34:21;;;;;;;2.63;1.40;;;16.50;66.80;;;;;;5094678;28;20127;-76
2022/10/17 01:36:53;;;;;;;1.52;1.20;;;16.50;66.80;;;;;;5095223;28;20485;-77
2022/10/17 01:39:23;;;;;;;2.28;1.30;;;16.50;67.40;;;;;;5094590;28;20058;-77
2022/10/17 01:41:51;;;;;;;1.67;1.30;;;16.60;66.90;;;;;;5094681;28;20048;-76
2022/10/17 01:44:19;;;;;;;3.65;1.27;;;16.50;66.80;;;;;;5095168;28;20479;-77
2022/10/17 01:46:46;;;;;;;2.30;1.50;;;16.50;66.80;;;;;;5095980;28;20044;-77
2022/10/17 01:49:14;;;;;;;2.80;1.30;;;16.50;66.90;;;;;;5094619;28;20198;-77
2022/10/17 01:51:42;;;;;;;2.58;1.40;;;16.50;66.90;;;;;;5094053;28;20060;-77
2022/10/17 01:54:11;;;;;;;1.70;1.30;;;16.50;66.90;;;;;;5094453;28;20060;-77
2022/10/17 01:56:38;;;;;;;1.67;1.25;;;16.50;66.90;;;;;;5094305;28;20062;-77
2022/10/17 01:59:06;;;;;;;1.77;1.20;;;16.50;66.90;;;;;;5094552;28;20059;-77
2022/10/17 02:01:33;;;;;;;2.45;1.30;;;16.50;66.90;;;;;;5093751;28;20071;-77
2022/10/17 02:04:00;;;;;;;1.52;1.20;;;16.50;66.90;;;;;;5095417;28;20134;-77
2022/10/17 02:06:28;;;;;;;2.22;1.30;;;16.50;66.80;;;;;;5094077;28;20075;-77
2022/10/17 02:08:55;;;;;;;1.90;1.20;;;16.50;66.90;;;;;;5093947;28;20059;-77
2022/10/17 02:11:22;;;;;;;1.92;1.30;;;16.50;66.90;;;;;;5094208;28;20139;-77
2022/10/17 02:14:04;;;;;;;1.70;1.38;;;16.50;66.90;;;;;;5094291;28;20062;-76
2022/10/17 02:16:36;;;;;;;1.77;1.20;;;16.50;66.90;;;;;;5093777;28;20056;-76
2022/10/17 02:19:12;;;;;;;1.30;1.15;;;16.50;66.90;;;;;;5073716;28;20135;-77
2022/10/17 02:21:44;;;;;;;1.80;1.30;;;16.50;66.90;;;;;;5073596;28;20054;-77
2022/10/17 02:24:15;;;;;;;2.88;1.20;;;16.50;67.40;;;;;;5074984;28;20091;-77
2022/10/17 02:26:44;;;;;;;1.75;1.30;;;16.50;66.90;;;;;;5073908;28;20132;-77
2022/10/17 02:29:13;;;;;;;2.38;1.20;;;16.50;66.90;;;;;;5073867;28;20080;-77
2022/10/17 02:31:41;;;;;;;1.70;1.40;;;16.50;66.90;;;;;;5085640;28;20059;-77
2022/10/17 02:34:09;;;;;;;1.52;1.40;;;16.50;66.90;;;;;;5093555;28;20074;-76
2022/10/17 02:36:38;;;;;;;1.55;1.20;;;16.50;66.90;;;;;;5093307;28;20060;-77
2022/10/17 02:39:06;;;;;;;1.60;1.25;;;16.50;66.90;;;;;;5093800;28;20048;-77
2022/10/17 02:41:33;;;;;;;1.70;1.40;;;16.50;66.90;;;;;;5093652;28;20138;-77
2022/10/17 02:44:00;;;;;;;2.45;1.20;;;16.50;66.90;;;;;;5093919;28;20143;-77
2022/10/17 02:46:26;;;;;;;2.15;1.10;;;16.50;66.90;;;;;;5093454;28;20055;-77
2022/10/17 02:48:54;;;;;;;2.30;1.20;;;17.50;69.40;;;;;;5093414;28;20087;-76
2022/10/17 02:51:24;;;;;;;2.03;1.33;;;16.50;66.90;;;;;;5093691;28;20055;-76
2022/10/17 02:53:54;;;;;;;1.75;1.40;;;16.50;66.90;;;;;;5094667;28;20136;-76
2022/10/17 02:56:22;;;;;;;1.23;1.13;;;16.50;66.90;;;;;;5092464;28;20063;-76
2022/10/17 02:58:50;;;;;;;1.83;1.30;;;16.40;66.80;;;;;;5093175;28;20416;-76
2022/10/17 03:01:17;;;;;;;1.63;1.45;;;16.50;66.90;;;;;;5091910;28;20058;-76
2022/10/17 03:03:43;;;;;;;2.55;1.27;;;16.50;66.90;;;;;;5092794;28;20135;-77
2022/10/17 03:06:10;;;;;;;2.50;1.52;;;16.40;66.80;;;;;;5093746;28;20141;-76
2022/10/17 03:08:37;;;;;;;1.42;1.30;;;16.50;66.90;;;;;;5093852;28;20131;-77
2022/10/17 03:11:03;;;;;;;1.88;1.40;;;15.20;66.20;;;;;;5093378;28;20059;-76
2022/10/17 03:13:31;;;;;;;1.83;1.48;;;16.40;66.80;;;;;;5094050;28;20569;-76
2022/10/17 03:15:58;;;;;;;2.05;1.40;;;16.40;66.90;;;;;;5092036;28;20051;-76
2022/10/17 03:18:26;;;;;;;1.75;1.42;;;16.40;66.90;;;;;;5092563;28;20436;-76
2022/10/17 03:20:52;;;;;;;1.55;1.40;;;16.40;66.80;;;;;;5092013;28;20054;-76
2022/10/17 03:23:19;;;;;;;1.90;1.23;;;16.40;66.80;;;;;;5092396;28;20060;-76
2022/10/17 03:25:46;;;;;;;1.70;1.27;;;16.40;66.80;;;;;;5092244;28;20813;-76
2022/10/17 03:28:12;;;;;;;2.83;1.40;;;16.40;66.80;;;;;;5092205;28;20054;-76
2022/10/17 03:30:40;;;;;;;1.67;1.40;;;16.40;66.80;;;;;;5092138;28;20052;-76
2022/10/17 03:33:07;;;;;;;1.60;1.38;;;16.40;66.90;;;;;;5092147;28;20051;-76
2022/10/17 03:35:34;;;;;;;2.60;1.30;;;16.40;66.80;;;;;;5093519;28;20131;-76
2022/10/17 03:38:00;;;;;;;1.45;1.30;;;16.40;66.80;;;;;;5092036;28;20082;-76
2022/10/17 03:40:27;;;;;;;1.50;1.20;;;16.40;66.80;;;;;;5092856;28;20050;-76
2022/10/17 03:42:54;;;;;;;1.65;1.25;;;16.40;66.80;;;;;;5091836;28;20052;-77
2022/10/17 03:45:20;;;;;;;1.63;1.23;;;16.40;66.80;;;;;;5091725;28;20058;-76
2022/10/17 03:47:48;;;;;;;1.70;1.20;;;16.40;66.80;;;;;;5091772;28;20173;-76
2022/10/17 03:50:15;;;;;;;1.30;1.20;;;16.40;66.80;;;;;;5092850;28;20127;-77
2022/10/17 03:52:42;;;;;;;1.88;1.30;;;16.40;66.80;;;;;;5093084;28;20127;-76
2022/10/17 03:55:09;;;;;;;2.25;1.27;;;16.40;66.80;;;;;;5091486;28;20048;-77
2022/10/17 03:57:36;;;;;;;1.40;1.20;;;16.40;66.80;;;;;;5091857;28;20449;-76
2022/10/17 04:00:04;;;;;;;1.90;1.35;;;16.40;66.80;;;;;;5091600;28;20480;-76
2022/10/17 04:02:30;;;;;;;1.17;1.00;;;16.40;66.80;;;;;;5090998;28;20052;-77
2022/10/17 04:04:58;;;;;;;1.30;1.20;;;16.40;66.80;;;;;;5090979;28;20507;-76
2022/10/17 04:07:25;;;;;;;2.33;1.27;;;16.40;66.90;;;;;;5090808;28;20134;-76
2022/10/17 04:09:52;;;;;;;1.65;1.20;;;16.40;66.80;;;;;;5090828;28;20052;-76
2022/10/17 04:12:18;;;;;;;2.45;1.30;;;16.40;66.80;;;;;;5091551;28;20052;-77
2022/10/17 04:14:45;;;;;;;1.55;1.30;;;16.40;66.80;;;;;;5090937;28;20062;-76
2022/10/17 04:17:12;;;;;;;1.60;1.23;;;16.40;66.80;;;;;;5090844;28;20458;-76
2022/10/17 04:19:38;;;;;;;1.95;1.40;;;16.40;66.80;;;;;;5091246;28;20126;-75
2022/10/17 04:22:07;;;;;;;1.65;1.30;;;16.40;66.80;;;;;;5090594;28;20135;-74
2022/10/17 04:24:34;;;;;;;1.88;1.50;;;16.40;66.90;;;;;;5090853;28;20439;-73
2022/10/17 04:27:00;;;;;;;2.00;1.25;;;16.40;66.90;;;;;;5089863;28;20127;-73
2022/10/17 04:29:27;;;;;;;1.90;1.42;;;16.30;66.80;;;;;;5091315;28;20550;-73
2022/10/17 04:31:54;;;;;;;2.95;1.33;;;16.40;66.90;;;;;;5090356;28;20131;-73
2022/10/17 04:34:21;;;;;;;1.50;1.30;;;16.30;66.80;;;;;;5090402;28;20135;-73
2022/10/17 04:36:48;;;;;;;1.52;1.33;;;16.30;66.80;;;;;;5090156;28;20052;-73
2022/10/17 04:39:16;;;;;;;1.52;1.30;;;16.40;66.90;;;;;;5091282;28;20056;-73
2022/10/17 04:41:42;;;;;;;1.77;1.38;;;16.40;66.90;;;;;;5089504;28;20052;-73
2022/10/17 04:44:10;;;;;;;1.95;1.30;;;16.30;66.80;;;;;;5090390;28;20513;-73
2022/10/17 04:46:36;;;;;;;1.58;1.27;;;16.30;66.90;;;;;;5091253;28;20044;-73
2022/10/17 04:49:03;;;;;;;1.70;1.30;;;16.40;66.90;;;;;;5091559;28;20123;-73
2022/10/17 04:51:30;;;;;;;1.67;1.35;;;16.30;66.90;;;;;;5090244;28;20159;-73
2022/10/17 04:53:57;;;;;;;2.00;1.42;;;16.30;66.90;;;;;;5091167;28;20138;-73
2022/10/17 04:56:25;;;;;;;1.52;1.27;;;16.30;66.90;;;;;;5090189;28;20052;-73
2022/10/17 04:58:51;;;;;;;1.23;1.10;;;16.30;66.90;;;;;;5089989;28;20054;-73
2022/10/17 05:01:20;;;;;;;1.50;1.30;;;16.30;66.90;;;;;;5090965;28;20052;-73
2022/10/17 05:03:46;;;;;;;2.15;1.30;;;16.30;66.90;;;;;;5094008;28;20058;-73
2022/10/17 05:06:15;;;;;;;1.48;1.27;;;16.30;66.90;;;;;;5093587;28;20048;-73
2022/10/17 05:08:41;;;;;;;1.48;1.20;;;16.30;66.90;;;;;;5093652;28;20054;-73
2022/10/17 05:11:16;;;;;;;1.60;1.20;;;16.30;66.90;;;;;;5076759;28;20074;-73
2022/10/17 05:13:44;;;;;;;1.20;1.10;;;16.30;66.90;;;;;;5091891;28;20047;-73
2022/10/17 05:16:11;;;;;;;1.30;1.20;;;16.30;66.90;;;;;;5092311;28;20447;-73
2022/10/17 05:18:38;;;;;;;1.40;1.30;;;16.30;68.90;;;;;;5093155;28;20139;-74
2022/10/17 05:21:05;;;;;;;1.45;1.20;;;16.30;66.90;;;;;;5093347;28;20048;-74
2022/10/17 05:23:31;;;;;;;1.65;1.20;;;16.30;66.90;;;;;;5093699;28;20054;-74
2022/10/17 05:25:58;;;;;;;1.75;1.20;;;16.30;66.90;;;;;;5093480;28;20139;-74
2022/10/17 05:28:25;;;;;;;1.40;1.30;;;16.30;66.90;;;;;;5093918;28;20408;-74
2022/10/17 05:30:53;;;;;;;1.23;1.10;;;16.30;67.00;;;;;;5093667;28;20134;-74
2022/10/17 05:33:20;;;;;;;2.85;1.33;;;16.30;67.00;;;;;;5093616;28;20131;-74
2022/10/17 05:35:47;;;;;;;1.58;1.30;;;16.30;67.00;;;;;;5093849;28;20158;-74
2022/10/17 05:38:14;;;;;;;1.77;1.20;;;16.30;67.00;;;;;;5093416;28;20139;-74
2022/10/17 05:40:40;;;;;;;1.30;1.20;;;16.30;67.00;;;;;;5093266;28;20054;-74
2022/10/17 05:43:07;;;;;;;3.08;1.33;;;16.30;67.00;;;;;;5093254;28;20472;-73
2022/10/17 05:45:34;;;;;;;1.83;1.30;;;16.30;67.00;;;;;;5093287;28;20052;-74
2022/10/17 05:48:02;;;;;;;1.90;1.50;;;17.70;67.70;;;;;;5093273;28;20055;-74
2022/10/17 05:50:29;;;;;;;1.50;1.30;;;16.30;67.00;;;;;;5093095;28;20066;-74
2022/10/17 05:52:55;;;;;;;1.40;1.30;;;16.30;67.00;;;;;;5093279;28;20048;-74
2022/10/17 05:55:22;;;;;;;1.88;1.20;;;16.30;67.00;;;;;;5093113;28;20064;-74
2022/10/17 05:57:49;;;;;;;1.30;1.20;;;16.30;67.50;;;;;;5093433;28;20058;-74
2022/10/17 06:00:16;;;;;;;1.20;1.10;;;16.20;67.00;;;;;;5092911;28;20105;-74
2022/10/17 06:02:44;;;;;;;1.73;1.35;;;16.30;67.00;;;;;;5092887;28;20044;-74
2022/10/17 06:05:12;;;;;;;2.17;1.40;;;16.20;67.00;;;;;;5092992;28;20086;-74
2022/10/17 06:07:39;;;;;;;1.75;1.45;;;16.30;67.00;;;;;;5092951;28;20489;-74
2022/10/17 06:10:06;;;;;;;1.40;1.30;;;16.30;67.10;;;;;;5092782;28;20071;-74
2022/10/17 06:12:33;;;;;;;1.30;1.20;;;16.30;67.00;;;;;;5091911;28;20123;-74
2022/10/17 06:15:00;;;;;;;1.63;1.30;;;16.20;67.00;;;;;;5092956;28;20054;-74
2022/10/17 06:17:27;;;;;;;1.60;1.20;;;16.30;67.00;;;;;;5092595;28;20507;-74
2022/10/17 06:19:54;;;;;;;1.70;1.40;;;16.30;67.10;;;;;;5092835;28;20142;-74
2022/10/17 06:22:22;;;;;;;1.52;1.30;;;16.20;67.00;;;;;;5092451;28;20060;-74
2022/10/17 06:24:49;;;;;;;1.52;1.30;;;16.20;67.00;;;;;;5092829;28;20143;-74
2022/10/17 06:27:15;;;;;;;2.10;1.50;;;16.20;67.10;;;;;;5092804;28;20139;-74
2022/10/17 06:29:42;;;;;;;3.70;1.40;;;16.20;67.00;;;;;;5093401;28;20154;-74
2022/10/17 06:32:09;;;;;;;1.38;1.27;;;16.30;67.10;;;;;;5093637;28;20048;-74
2022/10/17 06:34:35;;;;;;;1.85;1.40;;;16.30;67.10;;;;;;5092598;28;20048;-74
2022/10/17 06:37:02;;;;;;;1.63;1.40;;;16.30;67.10;;;;;;5092401;28;20564;-74
2022/10/17 06:39:32;;;;;;;1.40;1.30;;;16.30;67.10;;;;;;5092440;28;20144;-74
2022/10/17 06:41:59;;;;;;;2.45;1.45;;;16.20;67.00;;;;;;5091881;28;20087;-74
2022/10/17 06:44:30;;;;;;;1.38;1.20;;;16.20;67.00;;;;;;5092524;28;20101;-74
2022/10/17 06:47:32;;;;;;;1.92;1.40;;;16.20;67.00;;;;;;5092247;28;20062;-74
2022/10/17 06:49:58;;;;;;;1.25;1.13;;;16.40;69.10;;;;;;5092201;28;20576;-74
2022/10/17 06:52:25;;;;;;;1.85;1.50;;;16.20;67.10;;;;;;5091073;28;20059;-75
2022/10/17 06:54:53;;;;;;;1.40;1.17;;;16.30;67.10;;;;;;5092752;28;20040;-75
2022/10/17 06:57:20;;;;;;;1.55;1.30;;;16.30;67.10;;;;;;5087535;28;20070;-75
2022/10/17 06:59:47;;;;;;;1.40;1.27;;;16.30;67.10;;;;;;5092100;28;20048;-75
2022/10/17 07:02:13;;;;;;;1.52;1.30;;;16.20;67.10;;;;;;5090582;28;20495;-75
2022/10/17 07:04:40;;;;;;;1.40;1.30;;;16.20;67.00;;;;;;5092151;28;20054;-74
2022/10/17 07:07:07;;;;;;;2.05;1.40;;;16.20;67.10;;;;;;5090427;28;20131;-75
2022/10/17 07:09:33;;;;;;;1.83;1.30;;;16.30;67.10;;;;;;5091033;28;20420;-75
2022/10/17 07:12:02;;;;;;;2.30;1.27;;;16.30;67.10;;;;;;5091091;28;20040;-75
2022/10/17 07:14:30;;;;;;;1.88;1.38;;;16.30;67.10;;;;;;5091503;28;20130;-75
2022/10/17 07:16:57;;;;;;;1.85;1.40;;;16.30;67.20;;;;;;5090609;28;20081;-75
2022/10/17 07:19:24;;;;;;;2.42;1.40;;;14.30;66.10;;;;;;5091451;28;20151;-74
2022/10/17 07:21:50;;;;;;;2.28;1.33;;;16.30;67.10;;;;;;5090616;28;20129;-75
2022/10/17 07:24:17;;;;;;;2.28;1.50;;;16.40;67.10;;;;;;5089868;28;20048;-75
2022/10/17 07:26:44;;;;;;;2.58;1.40;;;16.40;67.00;;;;;;5091444;28;20107;-75
2022/10/17 07:29:12;;;;;;;2.97;1.30;;;16.40;66.90;;;;;;5090902;28;20048;-75
2022/10/17 07:31:39;;;;;;;2.30;1.50;;;16.50;66.90;;;;;;5089200;28;20144;-74
2022/10/17 07:34:06;;;;;;;4.32;1.58;;;16.50;66.80;;;;;;5091148;28;20052;-75
2022/10/17 07:36:32;;;;;;;2.72;1.60;;;16.60;66.90;;;;;;5091165;28;20058;-74
2022/10/17 07:38:59;;;;;;;4.22;1.52;;;16.60;66.80;;;;;;5090481;28;20056;-75
2022/10/17 07:41:26;;;;;;;3.97;1.52;;;16.70;66.80;;;;;;5090929;28;20056;-75
2022/10/17 07:43:53;;;;;;;2.78;1.50;;;16.70;66.70;;;;;;5088318;28;20047;-75
2022/10/17 07:46:21;;;;;;;2.38;1.40;;;16.80;66.70;;;;;;5078720;28;20107;-75
2022/10/17 07:48:48;;;;;;;2.08;1.30;;;16.80;66.60;;;;;;5071324;28;20052;-75
2022/10/17 07:51:15;;;;;;;3.63;1.67;;;16.80;66.60;;;;;;5090086;28;20225;-73
2022/10/17 07:53:43;;;;;;;2.50;1.48;;;16.90;66.60;;;;;;5090544;28;20052;-74
2022/10/17 07:56:10;;;;;;;3.60;1.80;;;16.90;66.50;;;;;;5079825;28;20091;-73
2022/10/17 07:58:37;;;;;;;3.53;1.58;;;16.90;66.50;;;;;;5090963;28;20127;-73
2022/10/17 08:01:04;;;;;;;2.97;1.52;;;17.00;66.50;;;;;;5090716;28;20129;-73
2022/10/17 08:03:32;;;;;;;1.88;1.20;;;17.00;66.40;;;;;;5090121;28;20048;-73
2022/10/17 08:05:59;;;;;;;2.67;1.67;;;17.00;66.30;;;;;;5080716;28;20421;-73
2022/10/17 08:08:26;;;;;;;2.15;1.38;;;17.10;66.40;;;;;;5085602;28;20052;-73
2022/10/17 08:10:53;;;;;;;1.95;1.50;;;17.10;66.30;;;;;;5090330;28;20058;-73
2022/10/17 08:13:21;;;;;;;2.50;1.30;;;17.10;66.30;;;;;;5090600;28;20149;-73
2022/10/17 08:15:47;;;;;;;2.35;1.65;;;17.20;66.20;;;;;;5091027;28;20155;-74
2022/10/17 08:18:14;;;;;;;1.77;1.40;;;17.20;66.10;;;;;;5090253;28;20052;-74
2022/10/17 08:20:42;;;;;;;2.40;1.30;;;17.20;66.10;;;;;;5090716;28;20056;-75
2022/10/17 08:23:09;;;;;;;2.20;1.50;;;17.20;66.00;;;;;;5093911;28;20136;-75
2022/10/17 08:25:38;;;;;;;3.03;1.58;;;17.20;66.00;;;;;;5094122;28;20122;-76
2022/10/17 08:28:05;;;;;;;3.00;1.50;;;17.30;66.00;;;;;;5095448;28;20127;-76
2022/10/17 08:30:31;;;;;;;2.53;1.35;;;17.30;66.10;;;;;;5095326;28;20130;-75
2022/10/17 08:32:58;;;;;;;1.70;1.33;;;17.30;66.00;;;;;;5096385;28;20123;-76
2022/10/17 08:35:25;;;;;;;1.98;1.52;;;17.40;66.10;;;;;;5095873;28;20091;-75
2022/10/17 08:37:53;;;;;;;1.70;1.30;;;17.40;65.90;;;;;;5097379;28;20072;-74
2022/10/17 08:40:22;;;;;;;2.83;1.40;;;17.40;65.80;;;;;;5096756;28;20151;-74
2022/10/17 08:42:55;;;;;;;2.17;1.50;;;17.70;66.00;;;;;;5094751;28;20131;-74
2022/10/17 08:45:26;;;;;;;2.75;1.60;;;17.50;65.70;;;;;;5092944;28;20062;-74
2022/10/17 08:47:54;;;;;;;3.88;1.58;;;17.50;65.70;;;;;;5094534;28;20052;-74
2022/10/17 08:50:27;;;;;;;3.13;1.55;;;17.50;65.70;;;;;;5095404;28;20128;-74
2022/10/17 08:52:56;;;;;;;2.13;1.30;;;17.50;65.60;;;;;;5096568;28;20047;-74
2022/10/17 08:55:28;;;;;;;1.85;1.40;;;17.60;65.60;;;;;;5096075;28;20155;-74
2022/10/17 08:57:55;;;;;;;2.25;1.63;;;15.60;64.60;;;;;;5097774;28;20572;-75
2022/10/17 09:00:23;;;;;;;1.83;1.33;;;17.60;65.70;;;;;;5096592;28;20087;-74
2022/10/17 09:02:57;;;;;;;1.83;1.38;;;17.60;65.70;;;;;;5098897;28;20044;-74
2022/10/17 09:05:28;;;;;;;1.87;1.40;;;17.60;65.50;;;;;;5094778;28;20064;-74
2022/10/17 09:08:02;;;;;;;1.95;1.50;;;17.60;65.50;;;;;;5092757;28;20060;-74
2022/10/17 09:10:33;;;;;;;2.15;1.23;;;17.60;65.40;;;;;;5093673;28;20056;-74
2022/10/17 09:13:10;;;;;;;2.65;1.50;;;17.70;65.50;;;;;;5093656;28;20123;-74
2022/10/17 09:15:49;;;;;;;1.83;1.40;;;17.70;65.40;;;;;;5093714;28;20134;-74
2022/10/17 09:18:17;;;;;;;2.45;1.40;;;17.70;65.40;;;;;;5093838;28;20062;-74
2022/10/17 09:20:50;;;;;;;2.40;1.45;;;17.70;65.50;;;;;;5093110;28;20056;-73
2022/10/17 09:23:20;;;;;;;1.45;1.33;;;17.70;65.40;;;;;;5092485;28;20080;-75
2022/10/17 09:25:48;;;;;;;1.90;1.58;;;17.70;65.50;;;;;;5092113;28;20052;-75
2022/10/17 09:28:17;;;;;;;2.85;1.30;;;17.70;65.40;;;;;;5094644;28;20052;-75
2022/10/17 09:30:46;;;;;;;3.22;1.33;;;17.70;65.40;;;;;;5092900;28;20118;-75
2022/10/17 09:33:13;;;;;;;3.05;1.42;;;17.70;65.40;;;;;;5093523;28;20086;-75
2022/10/17 09:35:41;;;;;;;2.03;1.25;;;17.70;65.40;;;;;;5093334;28;20097;-74
2022/10/17 09:38:13;;;;;;;2.65;1.42;;;17.70;66.00;;;;;;5092900;28;20052;-74
2022/10/17 09:40:41;;;;;;;1.65;1.30;;;17.80;65.50;;;;;;5093401;28;20420;-75
2022/10/17 09:43:08;;;;;;;1.75;1.45;;;17.70;65.40;;;;;;5093217;28;20044;-75
2022/10/17 09:45:42;;;;;;;1.70;1.33;;;17.70;65.40;;;;;;5094226;28;20059;-75
2022/10/17 09:48:12;;;;;;;2.80;1.50;;;17.70;65.30;;;;;;5091597;28;20055;-75
2022/10/17 09:50:38;;;;;;;1.63;1.40;;;17.70;65.30;;;;;;5092372;28;20048;-75
2022/10/17 09:53:10;;;;;;;1.80;1.33;;;17.70;65.30;;;;;;5093326;28;20044;-75
2022/10/17 09:55:38;;;;;;;1.80;1.30;;;17.70;65.40;;;;;;5093680;28;20059;-75
2022/10/17 09:58:07;;;;;;;2.42;1.42;;;17.70;65.30;;;;;;5092897;28;20052;-75
2022/10/17 10:00:35;;;;;;;1.88;1.33;;;17.70;65.40;;;;;;5092439;28;20063;-75
2022/10/17 10:03:20;;;;;;;2.13;1.40;;;17.70;65.40;;;;;;5093191;28;20048;-75
2022/10/17 10:06:01;;;;;;;1.70;1.40;;;17.70;65.70;;;;;;5095657;28;20056;-76
2022/10/17 10:08:30;;;;;;;2.25;1.27;;;18.40;68.10;;;;;;5092405;28;20064;-75
2022/10/17 10:10:59;;;;;;;2.05;1.58;;;17.70;65.40;;;;;;5094153;28;20080;-75
2022/10/17 10:13:27;;;;;;;1.88;1.40;;;17.70;65.60;;;;;;5094491;28;20090;-75
2022/10/17 10:15:54;;;;;;;1.52;1.30;;;17.70;65.70;;;;;;5095936;28;20469;-75
2022/10/17 10:18:34;;;;;;;2.53;1.70;;;17.70;65.80;;;;;;5093895;28;20056;-75
2022/10/17 10:21:06;;;;;;;2.22;1.40;;;17.70;65.90;;;;;;5092974;28;20424;-74
2022/10/17 10:23:33;;;;;;;1.80;1.42;;;17.70;65.90;;;;;;5093112;28;20481;-76
2022/10/17 10:26:02;;;;;;;4.22;1.50;;;17.60;66.00;;;;;;5093214;28;20104;-75
2022/10/17 10:28:32;;;;;;;2.58;1.90;;;17.70;66.00;;;;;;5094113;28;20476;-75
2022/10/17 10:31:00;;;;;;;1.35;1.25;;;19.10;66.80;;;;;;5093347;28;20052;-75
2022/10/17 10:33:32;;;;;;;1.70;1.30;;;17.60;66.10;;;;;;5093254;28;20126;-76
2022/10/17 10:36:09;;;;;;;1.70;1.40;;;19.10;67.30;;;;;;5072721;28;20572;-76
2022/10/17 10:38:51;;;;;;;1.50;1.33;;;17.60;66.20;;;;;;5094762;28;20044;-76
2022/10/17 10:52:17;;;;;;;2.60;1.50;;;17.60;66.40;;;;;;5096354;28;20121;-76
2022/10/17 10:55:25;;;;;;;2.03;1.50;;;17.60;66.50;;;;;;5094162;28;20047;-75
2022/10/17 10:59:07;;;;;;;2.15;1.42;;;17.50;66.60;;;;;;5079001;28;20055;-76
2022/10/17 11:04:50;;;;;;;1.90;1.40;;;17.50;66.70;;;;;;4992850;28;20447;-76
2022/10/17 11:13:46;;;;;;;2.03;1.30;;;17.50;66.80;;;;;;5024961;28;20045;-75
2022/10/17 11:16:36;;;;;;;3.03;1.42;;;17.40;67.20;;;;;;5036841;28;20049;-77
2022/10/17 11:19:15;;;;;;;2.10;1.43;;;17.50;66.90;;;;;;5019164;28;20056;-76
2022/10/17 11:21:45;;;;;;;2.28;1.50;;;17.40;66.90;;;;;;5032726;28;20526;-75
2022/10/17 11:24:16;;;;;;;1.75;1.50;;;17.40;67.00;;;;;;5018757;28;20121;-75
2022/10/17 11:26:46;;;;;;;2.38;1.60;;;17.40;66.90;;;;;;5031084;28;20138;-75
2022/10/17 11:29:13;;;;;;;1.90;1.60;;;19.00;67.80;;;;;;5095963;28;20131;-76
2022/10/17 11:31:41;;;;;;;2.60;1.40;;;19.00;68.00;;;;;;5096236;28;20060;-75
2022/10/17 11:34:10;;;;;;;2.05;1.67;;;17.40;67.00;;;;;;5095699;28;20132;-72
2022/10/17 11:36:40;;;;;;;2.50;1.50;;;17.40;67.00;;;;;;5092708;28;20043;-73
2022/10/17 11:39:11;;;;;;;1.85;1.52;;;16.20;68.10;;;;;;5090734;28;20044;-72
2022/10/17 11:41:39;;;;;;;1.80;1.50;;;17.40;67.10;;;;;;5090229;28;20052;-72
2022/10/17 11:44:14;;;;;;;1.77;1.30;;;17.40;67.00;;;;;;5090800;28;20044;-72
2022/10/17 11:46:41;;;;;;;;;;;17.40;66.90;;;;;;5091369;28;20058;-72
2022/10/17 11:49:11;;;;;;;2.25;1.50;;;17.30;66.80;;;;;;5091181;28;19920;-72
2022/10/17 11:51:42;;;;;;;3.42;1.63;;;17.30;67.00;;;;;;5090544;28;20101;-76
2022/10/17 11:54:11;;;;;;;1.70;1.45;;;17.30;67.00;;;;;;5092034;28;20048;-75
2022/10/17 11:56:39;;;;;;;2.10;1.80;;;17.40;67.00;;;;;;5090861;28;20066;-75
2022/10/17 11:59:24;;;;;;;2.03;1.50;;;17.30;67.00;;;;;;5089916;28;20134;-75
2022/10/17 12:01:52;;;;;;;1.70;1.60;;;17.40;67.00;;;;;;5088521;28;20066;-74
2022/10/17 12:04:24;;;;;;;2.15;1.67;;;17.30;67.00;;;;;;5076058;28;20098;-75
2022/10/17 12:07:16;;;;;;;2.15;1.60;;;17.30;67.20;;;;;;5090204;28;20134;-75
2022/10/17 12:09:46;;;;;;;2.65;1.60;;;17.40;67.30;;;;;;5089206;28;20082;-74
2022/10/17 12:12:24;;;;;;;2.03;1.63;;;17.30;67.20;;;;;;5089780;28;20709;-74
2022/10/17 12:14:52;;;;;;;2.67;1.70;;;17.40;67.20;;;;;;5071911;28;20080;-73
2022/10/17 12:17:31;;;;;;;1.58;1.45;;;17.30;67.20;;;;;;5090496;28;20131;-74
2022/10/17 12:20:33;;;;;;;3.03;1.70;;;17.30;67.10;;;;;;5090666;28;20060;-74
2022/10/17 12:23:04;;;;;;;1.77;1.48;;;17.40;67.10;;;;;;5090447;28;20083;-75
2022/10/17 12:25:32;;;;;;;1.85;1.52;;;17.30;67.10;;;;;;5090849;28;20412;-74
2022/10/17 12:28:15;;;;;;;2.33;2.13;;;17.30;67.10;;;;;;5090781;28;20052;-74
2022/10/17 12:30:55;;;;;;;3.22;1.83;;;17.30;67.00;;;;;;5090286;28;20056;-74
2022/10/17 12:33:29;;;;;;;2.22;1.77;;;17.40;67.10;;;;;;5090948;28;20062;-75
2022/10/17 12:36:36;;;;;;;2.35;1.80;;;17.30;67.60;;;;;;5090753;28;20071;-75
2022/10/17 12:39:36;;;;;;;2.58;1.60;;;17.30;67.00;;;;;;5091965;28;20070;-75
2022/10/17 12:42:03;;;;;;;2.33;1.60;;;17.30;67.00;;;;;;5090467;28;20550;-76
2022/10/17 12:44:36;;;;;;;2.50;1.60;;;17.30;67.20;;;;;;5091041;28;20131;-75
2022/10/17 12:47:28;;;;;;;1.70;1.50;;;17.30;67.10;;;;;;5091712;28;20539;-75
2022/10/17 12:49:55;;;;;;;1.90;1.70;;;17.30;67.00;;;;;;5087694;28;20051;-75
2022/10/17 12:52:28;;;;;;;1.80;1.60;;;17.30;67.10;;;;;;5090907;28;20076;-75
2022/10/17 12:54:58;;;;;;;1.92;1.50;;;17.30;67.30;;;;;;5090526;28;20477;-74
2022/10/17 12:57:28;;;;;;;1.73;1.60;;;17.30;67.20;;;;;;5091263;28;20156;-75
2022/10/17 12:59:55;;;;;;;2.70;1.65;;;17.30;67.10;;;;;;5090420;28;20135;-75
2022/10/17 13:02:24;;;;;;;1.65;1.35;;;17.30;67.10;;;;;;5091292;28;20432;-74
2022/10/17 13:04:53;;;;;;;1.83;1.60;;;17.30;67.10;;;;;;5089099;28;20048;-74
2022/10/17 13:07:21;;;;;;;1.70;1.50;;;17.30;67.10;;;;;;5089836;28;20083;-74
2022/10/17 13:09:48;;;;;;;3.35;1.80;;;17.30;67.10;;;;;;5090244;28;20597;-74
2022/10/17 13:12:17;;;;;;;1.70;1.50;;;17.30;67.10;;;;;;5091327;28;20051;-75
2022/10/17 13:14:44;;;;;;;1.95;1.75;;;17.30;67.10;;;;;;5090232;28;20048;-75
2022/10/17 13:17:22;;;;;;;2.65;1.85;;;17.30;67.10;;;;;;5090089;28;20051;-75
2022/10/17 13:19:48;;;;;;;1.67;1.50;;;17.30;67.10;;;;;;5090005;28;20052;-75
2022/10/17 13:22:17;;;;;;;1.75;1.60;;;17.30;67.10;;;;;;5073343;28;20060;-75